ADDS METAR Data INFO
IDs: Format: Raw Decoded Include TAF

Data at: 0351 UTC 18 Oct 2017

KMHV 180320Z AUTO 31019G26KT 10SM CLR 24/M09 A3004 RMK A01
KMHV 180300Z AUTO 30021G29KT 10SM CLR 25/M09 A3004 RMK A01
KMHV 180240Z AUTO 30021G29KT 10SM CLR 25/M07 A3004 RMK A01
KMHV 180220Z AUTO 29021G29KT 10SM CLR 25/M07 A3004 RMK A01
KMHV 180200Z AUTO 29022G28KT 10SM CLR 25/M08 A3004 RMK A01
KMHV 180140Z AUTO 29023G30KT 10SM CLR 26/M09 A3003 RMK A01
KMHV 180120Z AUTO 29020KT 10SM CLR 26/M08 A3003 RMK A01
KMHV 180100Z AUTO 30020G26KT 10SM CLR 27/M08 A3003 RMK A01
KMHV 180040Z AUTO 29018KT 10SM CLR 28/M08 A3004 RMK A01
KMHV 180020Z AUTO 30016G24KT 10SM CLR 29/M09 A3004 RMK A01
KMHV 180000Z AUTO 29014G21KT 10SM CLR 29/M08 A3004 RMK A01
KMHV 172340Z AUTO 28017G24KT 10SM CLR 30/M05 A3005 RMK A01
KMHV 172320Z AUTO 27019KT 10SM CLR 31/M05 A3005 RMK A01
KMHV 172300Z AUTO 28019KT 10SM CLR 32/M01 A3005 RMK A01
KMHV 172240Z AUTO 30011G20KT 10SM CLR 32/00 A3005 RMK A01
KMHV 172220Z AUTO 30012G25KT 10SM CLR 32/M03 A3005 RMK A01
KMHV 172200Z AUTO 28018KT 10SM CLR 33/M02 A3005 RMK A01
KMHV 172140Z AUTO 27017G24KT 10SM CLR 32/M10 A3005 RMK A01
KMHV 172120Z AUTO 27018KT 10SM CLR 33/M05 A3006 RMK A01
KMHV 172100Z AUTO 17008KT 10SM FEW100 FEW120 31/M10 A3006 RMK A01
KMHV 172040Z AUTO 17006KT 10SM CLR 30/M12 A3008 RMK A01
KMHV 172020Z AUTO 17004KT 10SM CLR 28/M12 A3009 RMK A01
KMHV 172000Z AUTO 00000KT 10SM CLR 27/M12 A3011 RMK A01
KMHV 171940Z AUTO 00000KT 10SM CLR 27/M12 A3012 RMK A01
KMHV 171920Z AUTO 00000KT 10SM CLR 26/M12 A3014 RMK A01
KMHV 171900Z AUTO 12003KT 10SM CLR 25/M12 A3014 RMK A01
KMHV 171840Z AUTO 14004KT 10SM CLR 25/M12 A3015 RMK A01
KMHV 171820Z AUTO 00000KT 10SM CLR 24/M13 A3016 RMK A01
KMHV 171800Z AUTO VRB03KT 10SM CLR 24/M12 A3016 RMK A01
KMHV 171740Z AUTO 00000KT 10SM CLR 23/M12 A3017 RMK A01
KMHV 171720Z AUTO VRB03KT 10SM CLR 22/M12 A3018 RMK A01
KMHV 171700Z AUTO 00000KT 10SM CLR 21/M13 A3017 RMK A01
KMHV 171640Z AUTO 00000KT 10SM CLR 20/M13 A3017 RMK A01
KMHV 171620Z AUTO 00000KT 10SM CLR 20/M13 A3018 RMK A01
KMHV 171600Z AUTO 140KT 10SM CLR 19/M13 A3018 RMK A01
KMHV 171540Z AUTO 00000KT 10SM CLR 18/M13 A3018 RMK A01
KMHV 171520Z AUTO 00000KT 9SM CLR 18/M13 A3017 RMK A01
KMHV 171500Z AUTO 00000KT 10SM CLR 16/M13 A3016 RMK A01
KMHV 171440Z AUTO 00000KT 5SM HZ CLR 13/M14 A3016 RMK A01
KMHV 171420Z AUTO 32003KT 9SM CLR 11/M14 A3015 RMK A01
KMHV 171400Z AUTO 32003KT 7SM CLR 11/M14 A3015 RMK A01
KMHV 171340Z AUTO 31003KT 10SM CLR 11/M14 A3015 RMK A01
KMHV 171320Z AUTO 33004KT 9SM CLR 11/M14 A3015 RMK A01
KMHV 171300Z AUTO 33004KT 10SM CLR 11/M14 A3015 RMK A01
KMHV 171240Z AUTO 33005KT 10SM CLR 11/M14 A3015 RMK A01
KMHV 171220Z AUTO 33005KT 10SM CLR 11/M14 A3014 RMK A01
KMHV 171200Z AUTO 33004KT 10SM CLR 11/M14 A3015 RMK A01
KMHV 171140Z AUTO 00000KT 10SM CLR 11/M14 A3014 RMK A01
KMHV 171120Z AUTO 00000KT 10SM CLR 12/M14 A3014 RMK A01
KMHV 171100Z AUTO 32005KT 10SM CLR 12/M14 A3014 RMK A01
KMHV 171040Z AUTO 33004KT 7SM CLR 12/M14 A3015 RMK A01
KMHV 171020Z AUTO 33006KT 9SM CLR 13/M14 A3015 RMK A01
KMHV 171000Z AUTO 32006KT 10SM CLR 13/M14 A3016 RMK A01
KMHV 170940Z AUTO 32008KT 9SM CLR 13/M14 A3016 RMK A01
KMHV 170920Z AUTO 32008KT 10SM CLR 13/M14 A3016 RMK A01
KMHV 170900Z AUTO 32009KT 10SM CLR 13/M14 A3017 RMK A01
KMHV 170840Z AUTO 32009KT 10SM CLR 14/M14 A3017 RMK A01
KMHV 170820Z AUTO 33009KT 10SM CLR 14/M14 A3017 RMK A01
KMHV 170800Z AUTO 33010KT 10SM CLR 14/M14 A3017 RMK A01
KMHV 170740Z AUTO 33010KT 10SM CLR 14/M14 A3018 RMK A01
KMHV 170720Z AUTO 33010KT 10SM CLR 14/M14 A3018 RMK A01
KMHV 170700Z AUTO 33010KT 10SM CLR 15/M14 A3019 RMK A01
KMHV 170640Z AUTO 33009KT 10SM CLR 15/M14 A3019 RMK A01
KMHV 170620Z AUTO 32010KT 10SM CLR 15/M15 A3019 RMK A01
KMHV 170600Z AUTO 33010KT 10SM CLR 15/M15 A3019 RMK A01
KMHV 170540Z AUTO 33009KT 10SM CLR 15/M15 A3019 RMK A01
KMHV 170520Z AUTO 33009KT 10SM CLR 15/M15 A3019 RMK A01
KMHV 170500Z AUTO 33009KT 10SM CLR 16/M15 A3018 RMK A01
KMHV 170440Z AUTO 33009KT 10SM CLR 16/M15 A3018 RMK A01
KMHV 170420Z AUTO 33009KT 10SM CLR 17/M15 A3018 RMK A01
KMHV 170400Z AUTO 32010KT 10SM CLR 17/M15 A3017 RMK A01
KMHV 170340Z AUTO 32009KT 10SM CLR 17/M15 A3017 RMK A01
KMHV 170320Z AUTO 32009KT 10SM CLR 17/M16 A3017 RMK A01
KMHV 170300Z AUTO 32009KT 10SM CLR 18/M16 A3016 RMK A01
KMHV 170240Z AUTO 33009KT 10SM CLR 18/M16 A3017 RMK A01
KMHV 170220Z AUTO 32009KT 10SM CLR 18/M16 A3016 RMK A01
KMHV 170200Z AUTO 33009KT 10SM CLR 19/M16 A3016 RMK A01
KMHV 170140Z AUTO 34004KT 9SM CLR 21/M15 A3016 RMK A01
KMHV 170120Z AUTO 00000KT 10SM CLR 25/M14 A3015 RMK A01
KMHV 170100Z AUTO 00000KT 10SM CLR 26/M13 A3015 RMK A01
KMHV 170040Z AUTO 00000KT 10SM CLR 27/M13 A3015 RMK A01
KMHV 170020Z AUTO 05005KT 10SM CLR 27/M13 A3016 RMK A01
KMHV 170000Z AUTO 06006KT 10SM CLR 27/M14 A3016 RMK A01
KMHV 162340Z AUTO 07005KT 10SM CLR 27/M14 A3016 RMK A01
KMHV 162320Z AUTO 03004G10KT 10SM CLR 28/M13 A3017 RMK A01 LTG DSNT N AND S
KMHV 162300Z AUTO 00000KT 10SM CLR 27/M14 A3017 RMK A01
KMHV 162240Z AUTO 00000KT 10SM CLR 27/M14 A3018 RMK A01
KMHV 162220Z AUTO 11003KT 10SM CLR 27/M14 A3018 RMK A01
KMHV 162200Z AUTO VRB05KT 10SM CLR 27/M14 A3018 RMK A01
KMHV 162140Z AUTO VRB04KT 10SM CLR 27/M14 A3019 RMK A01
KMHV 162120Z AUTO 08006KT 10SM CLR 27/M14 A3020 RMK A01
KMHV 162100Z AUTO 08007KT 050V120 10SM CLR 26/M14 A3020 RMK A01
KMHV 162040Z AUTO 06007KT 10SM CLR 26/M14 A3021 RMK A01
KMHV 162020Z AUTO 10003G10KT 10SM CLR 26/M14 A3022 RMK A01
KMHV 162000Z AUTO 07006G12KT 10SM CLR 25/M14 A3023 RMK A01
KMHV 161940Z AUTO 06007KT 10SM CLR 25/M14 A3024 RMK A01
KMHV 161920Z AUTO 06007KT 10SM CLR 25/M14 A3025 RMK A01
KMHV 161900Z AUTO 04007KT 10SM CLR 25/M14 A3026 RMK A01
KMHV 161840Z AUTO 04006KT 10SM CLR 24/M14 A3026 RMK A01
KMHV 161820Z AUTO 05006KT 10SM CLR 23/M14 A3027 RMK A01
KMHV 161800Z AUTO 07006KT 10SM CLR 22/M14 A3028 RMK A01
KMHV 161740Z AUTO VRB05KT 10SM CLR 22/M14 A3028 RMK A01
KMHV 161720Z AUTO 07004KT 10SM 21/M15 A3029 RMK A01
KMHV 161700Z AUTO 10003KT 10SM 20/M15 A3028 RMK A01
KMHV 161640Z AUTO 00000KT 10SM CLR 20/M15 A3028 RMK A01
KMHV 161620Z AUTO 00000KT 10SM CLR 19/M15 A3028 RMK A01
KMHV 161600Z AUTO 00000KT 10SM CLR 18/M15 A3029 RMK A01